sensor_id;sensor_type;location;lat;lon;timestamp;pressure;altitude;pressure_sealevel;temperature;humidity
7309;BME280;3695;53.330;9.876;2023-07-02T00:01:12;100964.13;;;21.91;100.00
7309;BME280;3695;53.330;9.876;2023-07-02T00:03:38;100970.63;;;20.67;100.00
7309;BME280;3695;53.330;9.876;2023-07-02T00:06:05;100972.75;;;21.84;100.00
7309;BME280;3695;53.330;9.876;2023-07-02T00:08:31;100985.69;;;21.89;100.00
7309;BME280;3695;53.330;9.876;2023-07-02T00:10:58;100986.00;;;20.79;100.00
7309;BME280;3695;53.330;9.876;2023-07-02T00:13:24;100977.09;;;21.07;100.00
7309;BME280;3695;53.330;9.876;2023-07-02T00:15:51;100984.34;;;19.05;100.00
7309;BME280;3695;53.330;9.876;2023-07-02T00:18:18;100981.44;;;20.38;100.00
7309;BME280;3695;53.330;9.876;2023-07-02T00:20:45;100964.22;;;20.92;100.00
7309;BME280;3695;53.330;9.876;2023-07-02T00:23:11;100999.06;;;21.66;100.00
7309;BME280;3695;53.330;9.876;2023-07-02T00:25:38;100998.91;;;22.50;100.00
7309;BME280;3695;53.330;9.876;2023-07-02T00:28:04;100999.84;;;21.77;100.00
7309;BME280;3695;53.330;9.876;2023-07-02T00:30:31;100982.72;;;22.91;100.00
7309;BME280;3695;53.330;9.876;2023-07-02T00:32:57;100975.66;;;22.32;100.00
7309;BME280;3695;53.330;9.876;2023-07-02T00:35:25;100965.06;;;18.42;100.00
7309;BME280;3695;53.330;9.876;2023-07-02T00:37:51;100974.53;;;21.21;100.00
7309;BME280;3695;53.330;9.876;2023-07-02T00:40:18;100994.13;;;23.46;100.00
7309;BME280;3695;53.330;9.876;2023-07-02T00:42:44;100965.97;;;20.63;100.00
7309;BME280;3695;53.330;9.876;2023-07-02T00:45:11;100956.88;;;19.15;100.00
7309;BME280;3695;53.330;9.876;2023-07-02T00:47:37;100970.13;;;19.38;100.00
7309;BME280;3695;53.330;9.876;2023-07-02T00:50:05;100972.09;;;18.70;100.00
7309;BME280;3695;53.330;9.876;2023-07-02T00:52:32;100978.44;;;19.59;100.00
7309;BME280;3695;53.330;9.876;2023-07-02T00:54:59;100953.69;;;19.69;100.00
7309;BME280;3695;53.330;9.876;2023-07-02T00:57:26;100954.72;;;19.37;100.00
7309;BME280;3695;53.330;9.876;2023-07-02T00:59:55;100949.75;;;19.24;100.00
7309;BME280;3695;53.330;9.876;2023-07-02T01:02:21;100947.63;;;20.07;100.00
7309;BME280;3695;53.330;9.876;2023-07-02T01:04:51;100933.34;;;19.85;100.00
7309;BME280;3695;53.330;9.876;2023-07-02T01:07:22;100940.44;;;19.30;100.00
7309;BME280;3695;53.330;9.876;2023-07-02T01:09:51;100920.59;;;19.03;100.00
7309;BME280;3695;53.330;9.876;2023-07-02T01:12:18;100924.63;;;18.80;100.00
7309;BME280;3695;53.330;9.876;2023-07-02T01:14:48;100932.16;;;19.10;100.00
7309;BME280;3695;53.330;9.876;2023-07-02T01:17:16;100918.66;;;18.41;100.00
7309;BME280;3695;53.330;9.876;2023-07-02T01:19:47;100899.41;;;18.31;100.00
7309;BME280;3695;53.330;9.876;2023-07-02T01:22:17;100893.50;;;18.54;100.00
7309;BME280;3695;53.330;9.876;2023-07-02T01:24:45;100888.19;;;18.95;100.00
7309;BME280;3695;53.330;9.876;2023-07-02T01:27:13;100887.75;;;18.55;100.00
7309;BME280;3695;53.330;9.876;2023-07-02T01:29:40;100879.75;;;18.49;100.00
7309;BME280;3695;53.330;9.876;2023-07-02T01:32:07;101038.59;;;23.73;100.00
7309;BME280;3695;53.330;9.876;2023-07-02T01:34:34;101009.53;;;23.90;100.00
7309;BME280;3695;53.330;9.876;2023-07-02T01:37:03;100960.47;;;25.10;100.00
7309;BME280;3695;53.330;9.876;2023-07-02T01:39:30;100911.16;;;26.19;100.00
7309;BME280;3695;53.330;9.876;2023-07-02T01:42:08;100908.53;;;27.19;100.00
7309;BME280;3695;53.330;9.876;2023-07-02T01:44:35;100892.16;;;25.81;100.00
7309;BME280;3695;53.330;9.876;2023-07-02T01:47:02;100875.41;;;25.95;100.00
7309;BME280;3695;53.330;9.876;2023-07-02T01:49:29;100905.41;;;25.62;100.00
7309;BME280;3695;53.330;9.876;2023-07-02T01:51:56;100933.69;;;29.35;100.00
7309;BME280;3695;53.330;9.876;2023-07-02T01:54:26;100950.09;;;25.38;100.00
7309;BME280;3695;53.330;9.876;2023-07-02T01:56:53;100977.31;;;30.72;100.00
7309;BME280;3695;53.330;9.876;2023-07-02T01:59:20;100990.88;;;25.51;100.00
7309;BME280;3695;53.330;9.876;2023-07-02T02:01:46;100991.47;;;24.43;100.00
7309;BME280;3695;53.330;9.876;2023-07-02T02:04:13;100924.41;;;16.79;100.00
7309;BME280;3695;53.330;9.876;2023-07-02T02:06:40;101038.69;;;16.17;100.00
7309;BME280;3695;53.330;9.876;2023-07-02T02:09:07;101171.78;;;24.28;100.00
7309;BME280;3695;53.330;9.876;2023-07-02T02:11:38;101298.97;;;30.89;100.00
7309;BME280;3695;53.330;9.876;2023-07-02T02:14:05;101140.59;;;35.12;100.00
7309;BME280;3695;53.330;9.876;2023-07-02T02:16:31;101022.13;;;28.93;100.00
7309;BME280;3695;53.330;9.876;2023-07-02T02:18:59;100986.94;;;29.72;100.00
7309;BME280;3695;53.330;9.876;2023-07-02T02:21:26;100925.22;;;29.98;100.00
7309;BME280;3695;53.330;9.876;2023-07-02T02:23:53;100943.38;;;28.88;100.00
7309;BME280;3695;53.330;9.876;2023-07-02T02:26:20;100957.91;;;29.02;100.00
7309;BME280;3695;53.330;9.876;2023-07-02T02:28:49;100955.84;;;28.52;100.00
7309;BME280;3695;53.330;9.876;2023-07-02T02:31:15;100974.47;;;29.69;100.00
7309;BME280;3695;53.330;9.876;2023-07-02T02:33:42;100947.63;;;27.05;100.00
7309;BME280;3695;53.330;9.876;2023-07-02T02:36:08;100962.53;;;27.87;100.00
7309;BME280;3695;53.330;9.876;2023-07-02T02:38:35;100939.00;;;25.38;100.00
7309;BME280;3695;53.330;9.876;2023-07-02T02:41:02;100890.59;;;22.77;100.00
7309;BME280;3695;53.330;9.876;2023-07-02T02:43:29;100885.44;;;23.45;100.00
7309;BME280;3695;53.330;9.876;2023-07-02T02:45:57;100901.53;;;21.86;100.00
7309;BME280;3695;53.330;9.876;2023-07-02T02:48:23;100888.06;;;22.56;100.00
7309;BME280;3695;53.330;9.876;2023-07-02T02:50:50;100915.53;;;20.72;100.00
7309;BME280;3695;53.330;9.876;2023-07-02T02:53:17;100904.19;;;21.28;100.00
7309;BME280;3695;53.330;9.876;2023-07-02T02:55:43;100899.78;;;22.48;100.00
7309;BME280;3695;53.330;9.876;2023-07-02T02:58:10;100916.06;;;21.97;100.00
7309;BME280;3695;53.330;9.876;2023-07-02T03:00:36;100925.03;;;21.50;100.00
7309;BME280;3695;53.330;9.876;2023-07-02T03:03:04;100928.47;;;21.65;100.00
7309;BME280;3695;53.330;9.876;2023-07-02T03:05:31;100950.84;;;23.74;100.00
7309;BME280;3695;53.330;9.876;2023-07-02T03:07:57;100957.44;;;22.79;100.00
7309;BME280;3695;53.330;9.876;2023-07-02T03:10:24;100939.41;;;22.86;100.00
7309;BME280;3695;53.330;9.876;2023-07-02T03:12:50;100953.25;;;22.05;100.00
7309;BME280;3695;53.330;9.876;2023-07-02T03:15:17;100945.56;;;22.78;100.00
7309;BME280;3695;53.330;9.876;2023-07-02T03:17:43;100953.78;;;22.59;100.00
7309;BME280;3695;53.330;9.876;2023-07-02T03:20:11;100960.75;;;22.81;100.00
7309;BME280;3695;53.330;9.876;2023-07-02T03:22:38;100951.38;;;23.76;100.00
7309;BME280;3695;53.330;9.876;2023-07-02T03:25:05;100951.69;;;23.74;100.00
7309;BME280;3695;53.330;9.876;2023-07-02T03:27:31;100951.69;;;22.51;100.00
7309;BME280;3695;53.330;9.876;2023-07-02T03:29:57;100942.63;;;23.50;100.00
7309;BME280;3695;53.330;9.876;2023-07-02T03:32:24;100940.75;;;24.57;100.00
7309;BME280;3695;53.330;9.876;2023-07-02T03:34:51;100938.41;;;24.04;100.00
7309;BME280;3695;53.330;9.876;2023-07-02T03:37:18;100943.63;;;22.31;100.00
7309;BME280;3695;53.330;9.876;2023-07-02T03:39:45;100933.72;;;23.15;100.00
7309;BME280;3695;53.330;9.876;2023-07-02T03:42:11;100928.13;;;22.83;100.00
7309;BME280;3695;53.330;9.876;2023-07-02T03:44:38;100938.19;;;22.69;100.00
7309;BME280;3695;53.330;9.876;2023-07-02T03:47:06;100943.56;;;22.36;100.00
7309;BME280;3695;53.330;9.876;2023-07-02T03:49:33;100978.97;;;35.87;100.00
7309;BME280;3695;53.330;9.876;2023-07-02T03:51:59;100918.28;;;21.22;100.00
7309;BME280;3695;53.330;9.876;2023-07-02T03:54:27;100861.22;;;15.77;100.00
7309;BME280;3695;53.330;9.876;2023-07-02T03:56:54;100926.38;;;15.23;100.00
7309;BME280;3695;53.330;9.876;2023-07-02T03:59:20;100966.13;;;15.30;100.00
7309;BME280;3695;53.330;9.876;2023-07-02T04:01:46;101031.28;;;15.84;100.00
7309;BME280;3695;53.330;9.876;2023-07-02T04:04:13;101078.03;;;15.42;100.00
7309;BME280;3695;53.330;9.876;2023-07-02T04:06:39;101185.44;;;27.08;100.00
7309;BME280;3695;53.330;9.876;2023-07-02T04:09:06;101116.25;;;29.52;100.00
7309;BME280;3695;53.330;9.876;2023-07-02T04:11:34;100967.03;;;15.64;100.00
7309;BME280;3695;53.330;9.876;2023-07-02T04:14:00;101124.09;;;26.01;100.00
7309;BME280;3695;53.330;9.876;2023-07-02T04:16:27;100993.81;;;18.35;100.00
7309;BME280;3695;53.330;9.876;2023-07-02T04:18:53;101021.94;;;15.63;100.00
7309;BME280;3695;53.330;9.876;2023-07-02T04:21:20;101037.09;;;17.15;100.00
7309;BME280;3695;53.330;9.876;2023-07-02T04:23:46;101171.91;;;24.88;100.00
7309;BME280;3695;53.330;9.876;2023-07-02T04:26:13;101059.91;;;16.10;100.00
7309;BME280;3695;53.330;9.876;2023-07-02T04:28:41;101223.63;;;32.79;100.00
7309;BME280;3695;53.330;9.876;2023-07-02T04:31:07;100997.03;;;43.83;100.00
7309;BME280;3695;53.330;9.876;2023-07-02T04:33:33;100896.41;;;16.72;100.00
7309;BME280;3695;53.330;9.876;2023-07-02T04:36:01;100947.16;;;15.69;100.00
7309;BME280;3695;53.330;9.876;2023-07-02T04:38:28;101258.91;;;38.26;100.00
7309;BME280;3695;53.330;9.876;2023-07-02T04:40:54;100955.03;;;19.51;100.00
7309;BME280;3695;53.330;9.876;2023-07-02T04:43:26;100966.94;;;15.93;100.00
7309;BME280;3695;53.330;9.876;2023-07-02T04:45:55;101014.56;;;15.63;100.00
7309;BME280;3695;53.330;9.876;2023-07-02T04:48:22;101028.16;;;15.75;100.00
7309;BME280;3695;53.330;9.876;2023-07-02T04:50:49;101033.56;;;15.58;100.00
7309;BME280;3695;53.330;9.876;2023-07-02T04:53:16;101060.50;;;15.55;100.00
7309;BME280;3695;53.330;9.876;2023-07-02T04:55:43;101072.53;;;15.65;100.00
7309;BME280;3695;53.330;9.876;2023-07-02T04:58:09;101104.59;;;15.58;100.00
7309;BME280;3695;53.330;9.876;2023-07-02T05:00:36;101144.44;;;15.83;100.00
7309;BME280;3695;53.330;9.876;2023-07-02T05:03:03;101152.34;;;15.67;100.00
7309;BME280;3695;53.330;9.876;2023-07-02T05:05:30;101169.38;;;15.86;100.00
7309;BME280;3695;53.330;9.876;2023-07-02T05:07:56;101156.34;;;15.77;100.00
7309;BME280;3695;53.330;9.876;2023-07-02T05:10:23;101672.81;;;32.46;100.00
7309;BME280;3695;53.330;9.876;2023-07-02T05:12:49;101436.59;;;30.70;100.00
7309;BME280;3695;53.330;9.876;2023-07-02T05:15:16;101357.09;;;31.46;100.00
7309;BME280;3695;53.330;9.876;2023-07-02T05:17:42;101132.25;;;32.82;100.00
7309;BME280;3695;53.330;9.876;2023-07-02T05:20:11;100974.66;;;17.44;100.00
7309;BME280;3695;53.330;9.876;2023-07-02T05:22:37;101008.09;;;15.86;100.00
7309;BME280;3695;53.330;9.876;2023-07-02T05:25:04;101014.72;;;15.73;100.00
7309;BME280;3695;53.330;9.876;2023-07-02T05:27:31;101011.91;;;15.68;100.00
7309;BME280;3695;53.330;9.876;2023-07-02T05:29:58;101036.09;;;15.93;100.00
7309;BME280;3695;53.330;9.876;2023-07-02T05:32:24;101281.59;;;34.99;100.00
7309;BME280;3695;53.330;9.876;2023-07-02T05:34:50;101115.25;;;30.73;100.00
7309;BME280;3695;53.330;9.876;2023-07-02T05:37:18;101076.00;;;38.03;100.00
7309;BME280;3695;53.330;9.876;2023-07-02T05:39:45;101069.09;;;37.97;100.00
7309;BME280;3695;53.330;9.876;2023-07-02T05:42:12;100935.44;;;48.54;96.98
7309;BME280;3695;53.330;9.876;2023-07-02T05:44:38;100922.19;;;34.46;100.00
7309;BME280;3695;53.330;9.876;2023-07-02T05:47:05;100906.91;;;33.20;100.00
7309;BME280;3695;53.330;9.876;2023-07-02T05:49:31;100930.75;;;28.52;100.00
7309;BME280;3695;53.330;9.876;2023-07-02T05:51:58;100925.00;;;28.87;100.00
7309;BME280;3695;53.330;9.876;2023-07-02T05:54:25;100942.25;;;27.26;100.00
7309;BME280;3695;53.330;9.876;2023-07-02T05:56:52;100944.03;;;26.56;100.00
7309;BME280;3695;53.330;9.876;2023-07-02T05:59:18;100958.16;;;26.77;100.00
7309;BME280;3695;53.330;9.876;2023-07-02T06:01:45;100952.16;;;26.44;100.00
7309;BME280;3695;53.330;9.876;2023-07-02T06:04:11;100912.84;;;32.33;100.00
7309;BME280;3695;53.330;9.876;2023-07-02T06:06:38;100922.50;;;32.67;100.00
7309;BME280;3695;53.330;9.876;2023-07-02T06:09:04;100951.78;;;17.28;100.00
7309;BME280;3695;53.330;9.876;2023-07-02T06:11:32;100979.66;;;16.76;100.00
7309;BME280;3695;53.330;9.876;2023-07-02T06:13:59;100959.50;;;17.31;100.00
7309;BME280;3695;53.330;9.876;2023-07-02T06:16:25;101014.53;;;26.60;100.00
7309;BME280;3695;53.330;9.876;2023-07-02T06:18:51;100976.50;;;28.51;100.00
7309;BME280;3695;53.330;9.876;2023-07-02T06:21:18;100964.38;;;27.92;100.00
7309;BME280;3695;53.330;9.876;2023-07-02T06:23:44;100963.41;;;29.10;100.00
7309;BME280;3695;53.330;9.876;2023-07-02T06:26:11;100949.53;;;31.56;100.00
7309;BME280;3695;53.330;9.876;2023-07-02T06:28:39;100955.81;;;28.05;100.00
7309;BME280;3695;53.330;9.876;2023-07-02T06:31:06;100958.31;;;25.79;100.00
7309;BME280;3695;53.330;9.876;2023-07-02T06:33:32;100957.38;;;28.70;100.00
7309;BME280;3695;53.330;9.876;2023-07-02T06:35:59;100955.84;;;28.81;100.00
7309;BME280;3695;53.330;9.876;2023-07-02T06:38:25;100946.44;;;32.01;100.00
7309;BME280;3695;53.330;9.876;2023-07-02T06:40:52;100948.16;;;31.90;100.00
7309;BME280;3695;53.330;9.876;2023-07-02T06:43:18;100953.47;;;31.15;100.00
7309;BME280;3695;53.330;9.876;2023-07-02T06:45:46;100940.34;;;31.15;100.00
7309;BME280;3695;53.330;9.876;2023-07-02T06:48:13;100953.00;;;28.99;100.00
7309;BME280;3695;53.330;9.876;2023-07-02T06:50:43;100944.41;;;30.45;100.00
7309;BME280;3695;53.330;9.876;2023-07-02T06:53:10;100980.56;;;27.20;100.00
7309;BME280;3695;53.330;9.876;2023-07-02T06:55:36;100942.78;;;29.03;100.00
7309;BME280;3695;53.330;9.876;2023-07-02T06:58:04;100967.75;;;28.14;100.00
7309;BME280;3695;53.330;9.876;2023-07-02T07:00:31;100981.50;;;26.99;100.00
7309;BME280;3695;53.330;9.876;2023-07-02T07:02:59;100975.47;;;27.14;100.00
7309;BME280;3695;53.330;9.876;2023-07-02T07:05:26;100958.06;;;29.68;100.00
7309;BME280;3695;53.330;9.876;2023-07-02T07:07:52;100969.59;;;28.57;100.00
7309;BME280;3695;53.330;9.876;2023-07-02T07:10:19;100970.59;;;29.62;100.00
7309;BME280;3695;53.330;9.876;2023-07-02T07:12:45;100978.59;;;29.01;100.00
7309;BME280;3695;53.330;9.876;2023-07-02T07:15:12;100983.91;;;28.85;100.00
7309;BME280;3695;53.330;9.876;2023-07-02T07:17:38;100992.13;;;25.45;100.00
7309;BME280;3695;53.330;9.876;2023-07-02T07:20:07;100992.28;;;26.29;100.00
7309;BME280;3695;53.330;9.876;2023-07-02T07:22:34;100996.47;;;27.46;100.00
7309;BME280;3695;53.330;9.876;2023-07-02T07:25:00;100979.94;;;28.95;100.00
7309;BME280;3695;53.330;9.876;2023-07-02T07:27:26;101000.72;;;26.47;100.00
7309;BME280;3695;53.330;9.876;2023-07-02T07:29:53;100969.44;;;27.98;100.00
7309;BME280;3695;53.330;9.876;2023-07-02T07:32:20;100990.38;;;27.26;100.00
7309;BME280;3695;53.330;9.876;2023-07-02T07:34:47;100977.31;;;27.79;100.00
7309;BME280;3695;53.330;9.876;2023-07-02T07:37:14;100999.22;;;27.37;100.00
7309;BME280;3695;53.330;9.876;2023-07-02T07:39:41;100984.97;;;27.30;100.00
7309;BME280;3695;53.330;9.876;2023-07-02T07:42:07;100966.53;;;28.79;100.00
7309;BME280;3695;53.330;9.876;2023-07-02T07:44:34;100965.06;;;29.74;100.00
7309;BME280;3695;53.330;9.876;2023-07-02T07:47:00;100949.28;;;29.36;100.00
7309;BME280;3695;53.330;9.876;2023-07-02T07:49:27;100966.34;;;29.14;100.00
7309;BME280;3695;53.330;9.876;2023-07-02T07:51:53;100960.84;;;29.68;100.00
7309;BME280;3695;53.330;9.876;2023-07-02T07:54:21;100990.19;;;28.27;100.00
7309;BME280;3695;53.330;9.876;2023-07-02T07:56:49;100954.41;;;29.55;100.00
7309;BME280;3695;53.330;9.876;2023-07-02T07:59:16;100988.28;;;27.75;100.00
7309;BME280;3695;53.330;9.876;2023-07-02T08:01:43;101002.50;;;26.43;100.00
7309;BME280;3695;53.330;9.876;2023-07-02T08:04:09;100987.06;;;28.28;100.00
7309;BME280;3695;53.330;9.876;2023-07-02T08:06:35;100969.88;;;28.64;100.00
7309;BME280;3695;53.330;9.876;2023-07-02T08:09:02;100967.91;;;30.19;100.00
7309;BME280;3695;53.330;9.876;2023-07-02T08:11:30;100979.09;;;27.83;100.00
7309;BME280;3695;53.330;9.876;2023-07-02T08:13:57;100994.94;;;27.05;100.00
7309;BME280;3695;53.330;9.876;2023-07-02T08:16:23;100962.13;;;29.70;100.00
7309;BME280;3695;53.330;9.876;2023-07-02T08:18:50;100978.75;;;28.02;100.00
7309;BME280;3695;53.330;9.876;2023-07-02T08:21:16;100971.13;;;28.75;100.00
7309;BME280;3695;53.330;9.876;2023-07-02T08:23:43;100977.81;;;28.83;100.00
7309;BME280;3695;53.330;9.876;2023-07-02T08:26:09;101002.69;;;27.86;100.00
7309;BME280;3695;53.330;9.876;2023-07-02T08:28:39;100991.53;;;27.25;100.00
7309;BME280;3695;53.330;9.876;2023-07-02T08:31:06;100979.50;;;28.46;100.00
7309;BME280;3695;53.330;9.876;2023-07-02T08:33:33;100987.28;;;28.06;100.00
7309;BME280;3695;53.330;9.876;2023-07-02T08:35:59;101011.13;;;26.10;100.00
7309;BME280;3695;53.330;9.876;2023-07-02T08:38:26;100982.59;;;28.91;100.00
7309;BME280;3695;53.330;9.876;2023-07-02T08:40:53;100983.72;;;28.52;100.00
7309;BME280;3695;53.330;9.876;2023-07-02T08:43:20;101011.94;;;27.04;100.00
7309;BME280;3695;53.330;9.876;2023-07-02T08:45:49;100999.22;;;26.80;100.00
7309;BME280;3695;53.330;9.876;2023-07-02T08:48:16;100982.06;;;27.70;100.00
7309;BME280;3695;53.330;9.876;2023-07-02T08:50:47;100971.63;;;29.36;100.00
7309;BME280;3695;53.330;9.876;2023-07-02T08:53:14;100975.09;;;29.54;100.00
7309;BME280;3695;53.330;9.876;2023-07-02T08:55:41;100994.69;;;27.76;100.00
7309;BME280;3695;53.330;9.876;2023-07-02T08:58:08;100996.44;;;28.70;100.00
7309;BME280;3695;53.330;9.876;2023-07-02T09:00:34;101001.53;;;28.04;100.00
7309;BME280;3695;53.330;9.876;2023-07-02T09:03:12;100992.59;;;28.92;100.00
7309;BME280;3695;53.330;9.876;2023-07-02T09:05:48;100993.75;;;28.44;100.00
7309;BME280;3695;53.330;9.876;2023-07-02T09:08:22;100982.00;;;30.11;100.00
7309;BME280;3695;53.330;9.876;2023-07-02T09:10:49;101002.91;;;28.53;100.00
7309;BME280;3695;53.330;9.876;2023-07-02T09:13:17;101017.59;;;28.07;100.00
7309;BME280;3695;53.330;9.876;2023-07-02T09:15:43;101000.75;;;29.89;100.00
7309;BME280;3695;53.330;9.876;2023-07-02T09:18:18;101001.81;;;29.13;100.00
7309;BME280;3695;53.330;9.876;2023-07-02T09:20:45;101007.41;;;30.63;100.00
7309;BME280;3695;53.330;9.876;2023-07-02T09:23:12;101008.88;;;28.26;100.00
7309;BME280;3695;53.330;9.876;2023-07-02T09:25:40;101009.25;;;27.90;100.00
7309;BME280;3695;53.330;9.876;2023-07-02T09:28:17;101018.25;;;27.87;100.00
7309;BME280;3695;53.330;9.876;2023-07-02T09:30:51;101019.53;;;28.33;100.00
7309;BME280;3695;53.330;9.876;2023-07-02T09:33:20;101041.72;;;27.95;100.00
7309;BME280;3695;53.330;9.876;2023-07-02T09:35:47;101035.66;;;29.12;100.00
7309;BME280;3695;53.330;9.876;2023-07-02T09:38:13;101027.06;;;29.17;100.00
7309;BME280;3695;53.330;9.876;2023-07-02T09:40:45;101027.22;;;28.82;100.00
7309;BME280;3695;53.330;9.876;2023-07-02T09:43:13;101018.44;;;28.63;100.00
7309;BME280;3695;53.330;9.876;2023-07-02T09:45:42;101035.63;;;27.49;100.00
7309;BME280;3695;53.330;9.876;2023-07-02T09:48:11;101024.34;;;29.29;100.00
7309;BME280;3695;53.330;9.876;2023-07-02T09:50:40;101018.53;;;28.46;100.00
7309;BME280;3695;53.330;9.876;2023-07-02T09:53:07;101025.63;;;29.40;100.00
7309;BME280;3695;53.330;9.876;2023-07-02T09:55:34;101009.09;;;29.06;100.00
7309;BME280;3695;53.330;9.876;2023-07-02T09:58:01;101026.94;;;27.51;100.00
7309;BME280;3695;53.330;9.876;2023-07-02T10:00:27;101003.44;;;29.86;100.00
7309;BME280;3695;53.330;9.876;2023-07-02T10:02:53;101031.94;;;27.23;100.00
7309;BME280;3695;53.330;9.876;2023-07-02T10:05:27;101021.53;;;27.54;100.00
7309;BME280;3695;53.330;9.876;2023-07-02T10:07:55;101035.91;;;27.39;100.00
7309;BME280;3695;53.330;9.876;2023-07-02T10:10:29;101030.50;;;28.38;100.00
7309;BME280;3695;53.330;9.876;2023-07-02T10:12:56;101045.28;;;27.52;100.00
7309;BME280;3695;53.330;9.876;2023-07-02T10:15:27;101042.22;;;27.05;100.00
7309;BME280;3695;53.330;9.876;2023-07-02T10:17:57;101023.72;;;28.56;100.00
7309;BME280;3695;53.330;9.876;2023-07-02T10:20:34;101034.00;;;27.83;100.00
7309;BME280;3695;53.330;9.876;2023-07-02T10:23:03;101045.84;;;27.06;100.00
7309;BME280;3695;53.330;9.876;2023-07-02T10:25:32;101054.59;;;27.47;100.00
7309;BME280;3695;53.330;9.876;2023-07-02T10:28:13;101031.06;;;27.71;100.00
7309;BME280;3695;53.330;9.876;2023-07-02T10:30:39;101019.72;;;28.74;100.00
7309;BME280;3695;53.330;9.876;2023-07-02T10:33:07;101010.88;;;28.72;100.00
7309;BME280;3695;53.330;9.876;2023-07-02T10:35:35;101027.59;;;27.48;100.00
7309;BME280;3695;53.330;9.876;2023-07-02T10:38:03;101010.22;;;28.03;100.00
7309;BME280;3695;53.330;9.876;2023-07-02T10:40:31;101008.13;;;30.27;100.00
7309;BME280;3695;53.330;9.876;2023-07-02T10:42:58;101017.25;;;28.73;100.00
7309;BME280;3695;53.330;9.876;2023-07-02T10:45:31;101011.66;;;28.35;100.00
7309;BME280;3695;53.330;9.876;2023-07-02T10:47:58;101009.03;;;29.14;100.00
7309;BME280;3695;53.330;9.876;2023-07-02T10:50:24;101027.09;;;28.24;100.00
7309;BME280;3695;53.330;9.876;2023-07-02T10:52:53;101008.53;;;28.45;100.00
7309;BME280;3695;53.330;9.876;2023-07-02T10:55:22;101018.16;;;28.56;100.00
7309;BME280;3695;53.330;9.876;2023-07-02T10:57:50;101017.13;;;29.58;100.00
7309;BME280;3695;53.330;9.876;2023-07-02T11:00:17;101029.28;;;28.65;100.00
7309;BME280;3695;53.330;9.876;2023-07-02T11:02:44;101036.19;;;29.76;100.00
7309;BME280;3695;53.330;9.876;2023-07-02T11:05:10;101028.16;;;29.04;100.00
7309;BME280;3695;53.330;9.876;2023-07-02T11:07:38;101037.91;;;29.69;100.00
7309;BME280;3695;53.330;9.876;2023-07-02T11:10:06;101035.28;;;28.11;100.00
7309;BME280;3695;53.330;9.876;2023-07-02T11:12:34;101039.31;;;29.04;100.00
7309;BME280;3695;53.330;9.876;2023-07-02T11:15:07;101037.69;;;28.56;100.00
7309;BME280;3695;53.330;9.876;2023-07-02T11:17:34;101064.44;;;26.96;100.00
7309;BME280;3695;53.330;9.876;2023-07-02T11:20:00;101069.94;;;27.27;100.00
7309;BME280;3695;53.330;9.876;2023-07-02T11:22:33;101038.75;;;28.08;100.00
7309;BME280;3695;53.330;9.876;2023-07-02T11:25:09;101038.06;;;28.93;100.00
7309;BME280;3695;53.330;9.876;2023-07-02T11:27:37;101009.16;;;30.92;100.00
7309;BME280;3695;53.330;9.876;2023-07-02T11:30:04;101023.59;;;29.50;100.00
7309;BME280;3695;53.330;9.876;2023-07-02T11:32:31;101037.00;;;29.35;100.00
7309;BME280;3695;53.330;9.876;2023-07-02T11:34:57;101037.78;;;29.44;100.00
7309;BME280;3695;53.330;9.876;2023-07-02T11:37:25;101029.88;;;30.21;100.00
7309;BME280;3695;53.330;9.876;2023-07-02T11:39:51;101069.63;;;27.29;100.00
7309;BME280;3695;53.330;9.876;2023-07-02T11:42:18;101049.88;;;28.43;100.00
7309;BME280;3695;53.330;9.876;2023-07-02T11:44:47;101040.69;;;28.80;100.00
7309;BME280;3695;53.330;9.876;2023-07-02T11:47:13;101037.41;;;29.17;100.00
7309;BME280;3695;53.330;9.876;2023-07-02T11:49:40;101044.63;;;27.89;100.00
7309;BME280;3695;53.330;9.876;2023-07-02T11:52:06;101016.97;;;29.75;100.00
7309;BME280;3695;53.330;9.876;2023-07-02T11:54:34;101047.38;;;29.26;100.00
7309;BME280;3695;53.330;9.876;2023-07-02T11:57:00;101042.03;;;29.12;100.00
7309;BME280;3695;53.330;9.876;2023-07-02T11:59:27;101029.56;;;30.92;100.00
7309;BME280;3695;53.330;9.876;2023-07-02T12:01:54;101061.34;;;29.56;100.00
7309;BME280;3695;53.330;9.876;2023-07-02T12:04:21;101042.28;;;30.32;100.00
7309;BME280;3695;53.330;9.876;2023-07-02T12:06:47;101064.63;;;28.81;100.00
7309;BME280;3695;53.330;9.876;2023-07-02T12:09:14;101061.50;;;28.36;100.00
7309;BME280;3695;53.330;9.876;2023-07-02T12:11:41;101048.19;;;29.98;100.00
7309;BME280;3695;53.330;9.876;2023-07-02T12:14:10;101056.31;;;29.91;100.00
7309;BME280;3695;53.330;9.876;2023-07-02T12:16:36;101050.56;;;30.29;100.00
7309;BME280;3695;53.330;9.876;2023-07-02T12:19:04;101044.22;;;30.20;100.00
7309;BME280;3695;53.330;9.876;2023-07-02T12:21:30;101065.56;;;29.32;100.00
7309;BME280;3695;53.330;9.876;2023-07-02T12:23:57;101088.75;;;27.96;100.00
7309;BME280;3695;53.330;9.876;2023-07-02T12:26:24;101074.00;;;29.74;100.00
7309;BME280;3695;53.330;9.876;2023-07-02T12:28:50;101086.25;;;28.20;100.00
7309;BME280;3695;53.330;9.876;2023-07-02T12:31:17;101076.78;;;27.96;100.00
7309;BME280;3695;53.330;9.876;2023-07-02T12:33:43;101075.00;;;28.90;100.00
7309;BME280;3695;53.330;9.876;2023-07-02T12:36:11;101081.84;;;28.19;100.00
7309;BME280;3695;53.330;9.876;2023-07-02T12:38:39;101088.41;;;28.06;100.00
7309;BME280;3695;53.330;9.876;2023-07-02T12:41:05;101090.69;;;27.70;100.00
7309;BME280;3695;53.330;9.876;2023-07-02T12:43:32;101091.38;;;27.27;100.00
7309;BME280;3695;53.330;9.876;2023-07-02T12:45:58;101074.97;;;29.57;100.00
7309;BME280;3695;53.330;9.876;2023-07-02T12:48:25;101080.75;;;29.73;100.00
7309;BME280;3695;53.330;9.876;2023-07-02T12:50:55;101090.78;;;30.16;100.00
7309;BME280;3695;53.330;9.876;2023-07-02T12:53:23;101089.53;;;29.04;100.00
7309;BME280;3695;53.330;9.876;2023-07-02T12:55:50;101075.38;;;29.68;100.00
7309;BME280;3695;53.330;9.876;2023-07-02T12:58:16;101091.09;;;28.75;100.00
7309;BME280;3695;53.330;9.876;2023-07-02T13:00:43;101091.72;;;29.78;100.00